Jake Shearer — WDI8655 — position and weather

sailwx.info

Track history (hours):
 
Tides and Currents Weather Stations Pressure Air Temp Water Temp Dewpoint Dewpoint Depression Visibility Wind Speed Wind Dir Waves Ship Positions

Jake Shearer

Owner: Harley Marine Services, Inc, Seattle, WA. More information available from US FCC via Universal Licensing System and Coast Guard Vessel Documentation Center.

Last reported at 2017-Nov-18 16:35 UTC. Time now 2017-Nov-19 19:56 UTC.
Position N 47°34' W 122°21'.

Length 34 m; draft 4.5 m.

Type: Tanker. MMSI: 367740790.

Date/timePositionNaut miles runAvg speedWind from/ knotsBaromVisibWave heightAir tempDewpointWater temp
2017-Nov-18 16:35N 47°34' W 122°21'0 0.0
2017-Nov-18 16:23N 47°34' W 122°21'0 0.1
2017-Nov-18 16:00N 47°34' W 122°21'0 0.0
2017-Nov-18 15:30N 47°34' W 122°21'1 2.8
2017-Nov-18 15:00N 47°36' W 122°21'2 4.3
2017-Nov-18 14:30N 47°37' W 122°24'5 9.3
2017-Nov-18 14:00N 47°40' W 122°29'5 9.4
2017-Nov-18 13:30N 47°45' W 122°27'5 9.4
2017-Nov-18 13:00N 47°50' W 122°28'5 9.6
2017-Nov-18 12:30N 47°54' W 122°30'611.0
2017-Nov-18 12:00N 47°58' W 122°36'1110.6
2017-Nov-18 10:58N 48°08' W 122°43'811.2
2017-Nov-18 10:14N 48°16' W 122°49'3 9.8
2017-Nov-18 09:55N 48°19' W 122°47'4 9.8
2017-Nov-18 09:29N 48°22' W 122°46'4 9.0
2017-Nov-18 09:00N 48°27' W 122°45'4 8.6
2017-Nov-18 08:30N 48°31' W 122°45'5 9.3
2017-Nov-18 08:00N 48°36' W 122°45'5 9.5
2017-Nov-18 07:30N 48°40' W 122°44'11 9.9
2017-Nov-18 06:22N 48°48' W 122°56'411.1
2017-Nov-18 05:59N 48°51' W 123°01'611.4
2017-Nov-18 05:28N 48°54' W 123°09'511.3
2017-Nov-18 04:59N 48°58' W 123°15'610.9
2017-Nov-18 04:27N 49°01' W 123°22'510.7
2017-Nov-18 04:00N 49°05' W 123°27'510.3
2017-Nov-18 03:30N 49°08' W 123°33'510.1
2017-Nov-18 03:00N 49°11' W 123°39'510.0
2017-Nov-18 02:29N 49°15' W 123°44'510.6
2017-Nov-18 02:00N 49°18' W 123°50'510.3
2017-Nov-18 01:30N 49°22' W 123°56'20 9.7
2017-Nov-17 23:27N 49°34' W 124°21'4 9.8
2017-Nov-17 23:01N 49°35' W 124°27'5 9.8
2017-Nov-17 22:30N 49°38' W 124°33'5 9.9
2017-Nov-17 22:00N 49°42' W 124°38'510.1
2017-Nov-17 21:30N 49°45' W 124°44'510.1
2017-Nov-17 21:00N 49°48' W 124°50'5 9.6
2017-Nov-17 20:30N 49°51' W 124°56'5 9.9
2017-Nov-17 20:01N 49°54' W 125°02'5 9.9
2017-Nov-17 19:30N 49°58' W 125°08'5 9.4
2017-Nov-17 19:00N 50°01' W 125°13'5 9.5
2017-Nov-17 18:31N 50°05' W 125°17'4 7.7
2017-Nov-17 18:00N 50°08' W 125°21'3 5.9
2017-Nov-17 17:31N 50°11' W 125°22'3 6.1
2017-Nov-17 17:00N 50°14' W 125°23'3 6.1
2017-Nov-17 16:30N 50°17' W 125°24'4 6.8
2017-Nov-17 15:59N 50°20' W 125°26'4 7.6
2017-Nov-17 15:28N 50°21' W 125°32'5 7.0
2017-Nov-17 14:49N 50°22' W 125°39'5 7.1
2017-Nov-17 14:10N 50°22' W 125°46'1 6.7
2017-Nov-17 14:00N 50°23' W 125°47'42 8.9
2017-Nov-17 09:13N 50°39' W 126°49'311.1
2017-Nov-17 08:58N 50°41' W 126°52'510.7
2017-Nov-17 08:30N 50°42' W 126°60'510.4
2017-Nov-17 08:00N 50°44' W 127°08'510.5
2017-Nov-17 07:30N 50°46' W 127°15'510.5
2017-Nov-17 07:01N 50°48' W 127°23'510.6
2017-Nov-17 06:31N 50°51' W 127°30'810.5
2017-Nov-17 05:45N 50°55' W 127°40'311.0
2017-Nov-17 05:31N 50°57' W 127°43'510.7
2017-Nov-17 05:00N 51°01' W 127°50'510.6
2017-Nov-17 04:30N 51°04' W 127°57'1010.0
2017-Nov-17 03:29N 51°10' W 128°09'5 9.8
2017-Nov-17 03:01N 51°13' W 128°15'5 9.5
2017-Nov-17 02:30N 51°16' W 128°21'5 9.9
2017-Nov-17 02:01N 51°20' W 128°27'510.0
2017-Nov-17 01:31N 51°24' W 128°31'5 9.8
2017-Nov-17 01:01N 51°28' W 128°36'5 9.9
2017-Nov-17 00:30N 51°32' W 128°40'5 9.6
2017-Nov-17 00:00N 51°36' W 128°45'5 9.6
2017-Nov-16 23:31N 51°40' W 128°49'510.0
2017-Nov-16 23:01N 51°44' W 128°54'5 9.9
2017-Nov-16 22:30N 51°48' W 128°58'5 9.9
2017-Nov-16 22:00N 51°52' W 129°03'5 9.8
2017-Nov-16 21:30N 51°56' W 129°07'5 9.7
2017-Nov-16 21:00N 51°60' W 129°12'5 9.8
2017-Nov-16 20:30N 52°04' W 129°17'109 9.4
2017-Nov-16 08:50N 53°37' W 130°52'4 9.5
2017-Nov-16 08:24N 53°41' W 130°54'4 9.3
2017-Nov-16 08:00N 53°44' W 130°55'5 9.1
2017-Nov-16 07:30N 53°49' W 130°58'4 8.9
2017-Nov-16 07:00N 53°53' W 130°60'4 8.9
2017-Nov-16 06:31N 53°57' W 131°01'4 8.9
2017-Nov-16 06:01N 54°02' W 131°02'5 9.2
2017-Nov-16 05:30N 54°06' W 131°02'5 9.5
2017-Nov-16 05:00N 54°11' W 131°02'5 9.4
2017-Nov-16 04:30N 54°16' W 131°02'5 9.4
2017-Nov-16 04:01N 54°20' W 131°04'5 9.7
2017-Nov-16 03:30N 54°25' W 131°06'5 9.4
2017-Nov-16 03:00N 54°30' W 131°08'7 9.8
2017-Nov-16 02:18N 54°37' W 131°09'610.0
2017-Nov-16 01:43N 54°42' W 131°08'5 0.1
2017-Nov-14 15:15N 54°38' W 131°09'510.1
2017-Nov-14 14:46N 54°33' W 131°09'310.5
2017-Nov-14 14:31N 54°30' W 131°09'610.5
2017-Nov-14 13:59N 54°25' W 131°06'510.4
2017-Nov-14 13:30N 54°20' W 131°03'510.5
2017-Nov-14 13:00N 54°15' W 131°02'510.6
2017-Nov-14 12:31N 54°10' W 131°02'510.5
2017-Nov-14 12:01N 54°04' W 131°02'510.3
2017-Nov-14 11:30N 53°59' W 131°01'510.0
2017-Nov-14 10:59N 53°55' W 130°57'510.3
2017-Nov-14 10:30N 53°51' W 130°50'510.2
2017-Nov-14 10:00N 53°48' W 130°44'810.4
2017-Nov-14 09:16N 53°43' W 130°35'310.3
2017-Nov-14 09:00N 53°41' W 130°31'106 9.8
2017-Nov-13 22:14N 52°16' W 128°47'3 9.9
2017-Nov-13 21:59N 52°13' W 128°45'181 9.1
2017-Nov-13 02:01N 50°07' W 125°19'3 6.5
2017-Nov-13 01:30N 50°05' W 125°16'5 9.5
2017-Nov-13 01:01N 50°00' W 125°13'4 7.4
2017-Nov-13 00:31N 49°58' W 125°08'610.4
2017-Nov-12 23:58N 49°54' W 125°02'510.5
2017-Nov-12 23:28N 49°51' W 124°55'510.0
2017-Nov-12 23:00N 49°48' W 124°50'510.4
2017-Nov-12 22:30N 49°45' W 124°43'510.9
2017-Nov-12 22:00N 49°41' W 124°37'610.5
2017-Nov-12 21:27N 49°38' W 124°30'1810.2
2017-Nov-12 19:40N 49°28' W 124°06'210.4
2017-Nov-12 19:27N 49°26' W 124°03'610.5
2017-Nov-12 18:50N 49°22' W 123°55'410.8
2017-Nov-12 18:30N 49°20' W 123°51'610.7
2017-Nov-12 17:55N 49°16' W 123°44'510.7
2017-Nov-12 17:28N 49°13' W 123°38'610.5
2017-Nov-12 16:55N 49°10' W 123°31'410.2
2017-Nov-12 16:30N 49°07' W 123°26'510.2
2017-Nov-12 16:00N 49°04' W 123°20'510.4
2017-Nov-12 15:30N 49°01' W 123°14'610.1
2017-Nov-12 14:55N 48°57' W 123°07'4 9.5
2017-Nov-12 14:31N 48°55' W 123°02'4 8.6
2017-Nov-12 14:00N 48°54' W 122°55'6 9.5
2017-Nov-12 13:23N 48°52' W 122°47'1 2.7
2017-Nov-12 12:58N 48°52' W 122°45'0 0.0
2017-Nov-11 20:15N 48°52' W 122°45'0 0.5
2017-Nov-11 19:54N 48°51' W 122°45'5 7.2
2017-Nov-11 19:11N 48°52' W 122°53'2 8.8
2017-Nov-11 18:59N 48°53' W 122°56'4 8.8
2017-Nov-11 18:30N 48°54' W 123°02'4 8.7
2017-Nov-11 17:59N 48°56' W 123°08'5 9.3
2017-Nov-11 17:30N 48°58' W 123°14'5 8.9
2017-Nov-11 16:56N 49°01' W 123°20'4 9.4
2017-Nov-11 16:30N 49°04' W 123°23'5 9.5
2017-Nov-11 16:00N 49°09' W 123°23'5 9.9
2017-Nov-11 15:30N 49°14' W 123°22'5 9.4
2017-Nov-11 15:00N 49°18' W 123°18'5 9.3
2017-Nov-11 14:30N 49°19' W 123°11'5 9.1
2017-Nov-11 14:00N 49°18' W 123°05'3 5.7
2017-Nov-11 13:30N 49°18' W 123°00'0 0.0
2017-Nov-11 08:53N 49°18' W 123°00'0 0.0
2017-Nov-11 04:41N 49°18' W 123°00'0 0.0
2017-Nov-11 02:59N 49°18' W 123°00'0 0.0
2017-Nov-11 01:56N 49°18' W 123°00'1 1.9
2017-Nov-11 01:30N 49°18' W 122°59'2 2.4
2017-Nov-11 00:41N 49°18' W 122°56'0 0.1
2017-Nov-11 00:29N 49°18' W 122°56'0 0.0
2017-Nov-10 23:41N 49°18' W 122°56'0 0.0
2017-Nov-10 23:29N 49°18' W 122°56'0 0.0
2017-Nov-10 22:47N 49°18' W 122°56'0 0.0
2017-Nov-10 22:29N 49°18' W 122°56'0 0.0
2017-Nov-10 21:59N 49°18' W 122°56'0 0.1
2017-Nov-10 21:29N 49°18' W 122°56'0 0.2
2017-Nov-10 20:47N 49°18' W 122°56'0 0.0
2017-Nov-10 20:29N 49°18' W 122°56'0 0.1
2017-Nov-10 19:53N 49°18' W 122°56'0 0.1
2017-Nov-10 19:30N 49°18' W 122°56'0 0.1
2017-Nov-10 19:00N 49°18' W 122°56'0 0.1
2017-Nov-10 18:30N 49°18' W 122°56'0 0.3
2017-Nov-10 18:00N 49°18' W 122°56'1 2.6
2017-Nov-10 17:30N 49°18' W 122°54'0 0.2
2017-Nov-10 16:52N 49°17' W 122°54'0 0.0
2017-Nov-10 16:04N 49°17' W 122°54'0 0.1
2017-Nov-10 15:58N 49°17' W 122°54'0 0.0
2017-Nov-10 15:28N 49°17' W 122°54'0 0.0
2017-Nov-10 14:34N 49°17' W 122°54'0 0.1
2017-Nov-10 14:28N 49°17' W 122°54'0 0.0
2017-Nov-10 13:16N 49°17' W 122°54'0 0.0
2017-Nov-10 12:58N 49°17' W 122°54'0 0.0
2017-Nov-10 12:22N 49°17' W 122°54'0 0.0
2017-Nov-10 11:58N 49°17' W 122°54'0 0.0
2017-Nov-10 11:04N 49°17' W 122°54'0 0.0
2017-Nov-10 10:46N 49°17' W 122°54'0 0.0
2017-Nov-10 10:22N 49°17' W 122°54'0 0.0
2017-Nov-10 09:58N 49°17' W 122°54'0 0.0
2017-Nov-10 09:22N 49°17' W 122°54'0 0.0
2017-Nov-10 08:52N 49°17' W 122°54'0 0.0
2017-Nov-10 07:58N 49°17' W 122°54'0 0.0
2017-Nov-10 07:28N 49°17' W 122°54'0 0.0
2017-Nov-10 06:58N 49°17' W 122°54'0 0.0
2017-Nov-10 06:28N 49°17' W 122°54'0 0.5
2017-Nov-10 05:58N 49°17' W 122°54'3 6.0
2017-Nov-10 05:30N 49°18' W 122°59'3 6.5
2017-Nov-10 05:00N 49°18' W 123°03'1 2.6
2017-Nov-10 04:30N 49°18' W 123°05'2 4.5
2017-Nov-10 04:00N 49°19' W 123°09'3 6.4
2017-Nov-10 03:30N 49°20' W 123°13'2 4.2
2017-Nov-10 03:00N 49°20' W 123°17'3 5.1
2017-Nov-10 02:30N 49°19' W 123°20'3 5.3
2017-Nov-10 02:00N 49°19' W 123°25'3 5.8
2017-Nov-10 01:30N 49°20' W 123°29'3 6.4
2017-Nov-10 01:00N 49°21' W 123°34'3 6.7
2017-Nov-10 00:30N 49°22' W 123°38'5 8.0
2017-Nov-09 23:50N 49°24' W 123°46'2110.5
2017-Nov-09 21:51N 49°32' W 124°16'510.9
2017-Nov-09 21:22N 49°34' W 124°23'410.6
2017-Nov-09 21:00N 49°36' W 124°29'510.5
2017-Nov-09 20:30N 49°39' W 124°35'510.8
2017-Nov-09 20:00N 49°43' W 124°41'510.4
2017-Nov-09 19:30N 49°46' W 124°47'510.3
2017-Nov-09 19:00N 49°50' W 124°53'510.3
2017-Nov-09 18:30N 49°53' W 124°59'510.4
2017-Nov-09 18:00N 49°56' W 125°05'5 9.8
2017-Nov-09 17:30N 49°59' W 125°11'510.9
2017-Nov-09 17:00N 50°04' W 125°15'611.9
2017-Nov-09 16:30N 50°09' W 125°21'611.2
2017-Nov-09 16:00N 50°14' W 125°23'5 9.8
2017-Nov-09 15:30N 50°19' W 125°25'2 1.2
2017-Nov-09 13:49N 50°21' W 125°27'2 6.7
2017-Nov-09 13:30N 50°21' W 125°24'2 4.8
2017-Nov-09 12:59N 50°23' W 125°20'4 6.8
2017-Nov-09 12:26N 50°20' W 125°25'4 9.1
2017-Nov-09 12:00N 50°21' W 125°32'9 8.5
2017-Nov-09 10:58N 50°22' W 125°45'25 9.7
2017-Nov-09 08:21N 50°30' W 126°23'16 7.3
2017-Nov-09 06:11N 50°37' W 126°46'2 8.5
2017-Nov-09 06:00N 50°38' W 126°48'5 8.7
2017-Nov-09 05:28N 50°41' W 126°53'5 8.7
2017-Nov-09 04:57N 50°43' W 126°59'4 8.7
2017-Nov-09 04:28N 50°44' W 127°06'4 8.3
2017-Nov-09 04:00N 50°46' W 127°11'4 8.5
2017-Nov-09 03:30N 50°47' W 127°18'4 8.8
2017-Nov-09 03:00N 50°49' W 127°24'4 8.9
2017-Nov-09 02:30N 50°51' W 127°30'4 8.3
2017-Nov-09 02:00N 50°53' W 127°36'5 9.7
2017-Nov-09 01:30N 50°56' W 127°42'5 9.4
2017-Nov-09 01:00N 50°60' W 127°46'5 9.7
2017-Nov-09 00:30N 51°05' W 127°48'510.2
2017-Nov-09 00:00N 51°10' W 127°51'610.3
2017-Nov-08 23:27N 51°15' W 127°53'510.4
2017-Nov-08 23:00N 51°19' W 127°56'5 9.8
2017-Nov-08 22:27N 51°24' W 128°00'4 9.9
2017-Nov-08 22:00N 51°26' W 128°06'510.2
2017-Nov-08 21:30N 51°30' W 128°12'510.2
2017-Nov-08 21:00N 51°34' W 128°16'5 9.3
2017-Nov-08 20:30N 51°38' W 128°20'4 8.9
2017-Nov-08 20:00N 51°42' W 128°24'5 9.6
2017-Nov-08 19:30N 51°46' W 128°28'5 9.7
2017-Nov-08 19:00N 51°50' W 128°32'5 9.4
2017-Nov-08 18:30N 51°55' W 128°35'5 9.1
2017-Nov-08 18:00N 51°59' W 128°38'4 8.6
2017-Nov-08 17:30N 52°03' W 128°40'4 8.8
2017-Nov-08 17:00N 52°07' W 128°42'  
Track history (hours):
 
Tides and Currents Weather Stations Pressure Air Temp Water Temp Dewpoint Dewpoint Depression Visibility Wind Speed Wind Dir Waves Ship Positions

Jake Shearer

Owner: Harley Marine Services, Inc, Seattle, WA. More information available from US FCC via Universal Licensing System and Coast Guard Vessel Documentation Center.

Last reported at 2017-Nov-18 16:35 UTC. Time now 2017-Nov-19 19:56 UTC.
Position N 47°34' W 122°21'.

Length 34 m; draft 4.5 m.

Type: Tanker. MMSI: 367740790.

Date/timePositionNaut miles runAvg speedWind from/ knotsBaromVisibWave heightAir tempDewpointWater temp
2017-Nov-18 16:35N 47°34' W 122°21'0 0.0
2017-Nov-18 16:23N 47°34' W 122°21'0 0.1
2017-Nov-18 16:00N 47°34' W 122°21'0 0.0
2017-Nov-18 15:30N 47°34' W 122°21'1 2.8
2017-Nov-18 15:00N 47°36' W 122°21'2 4.3
2017-Nov-18 14:30N 47°37' W 122°24'5 9.3
2017-Nov-18 14:00N 47°40' W 122°29'5 9.4
2017-Nov-18 13:30N 47°45' W 122°27'5 9.4
2017-Nov-18 13:00N 47°50' W 122°28'5 9.6
2017-Nov-18 12:30N 47°54' W 122°30'611.0
2017-Nov-18 12:00N 47°58' W 122°36'1110.6
2017-Nov-18 10:58N 48°08' W 122°43'811.2
2017-Nov-18 10:14N 48°16' W 122°49'3 9.8
2017-Nov-18 09:55N 48°19' W 122°47'4 9.8
2017-Nov-18 09:29N 48°22' W 122°46'4 9.0
2017-Nov-18 09:00N 48°27' W 122°45'4 8.6
2017-Nov-18 08:30N 48°31' W 122°45'5 9.3
2017-Nov-18 08:00N 48°36' W 122°45'5 9.5
2017-Nov-18 07:30N 48°40' W 122°44'11 9.9
2017-Nov-18 06:22N 48°48' W 122°56'411.1
2017-Nov-18 05:59N 48°51' W 123°01'611.4
2017-Nov-18 05:28N 48°54' W 123°09'511.3
2017-Nov-18 04:59N 48°58' W 123°15'610.9
2017-Nov-18 04:27N 49°01' W 123°22'510.7
2017-Nov-18 04:00N 49°05' W 123°27'510.3
2017-Nov-18 03:30N 49°08' W 123°33'510.1
2017-Nov-18 03:00N 49°11' W 123°39'510.0
2017-Nov-18 02:29N 49°15' W 123°44'510.6
2017-Nov-18 02:00N 49°18' W 123°50'510.3
2017-Nov-18 01:30N 49°22' W 123°56'20 9.7
2017-Nov-17 23:27N 49°34' W 124°21'4 9.8
2017-Nov-17 23:01N 49°35' W 124°27'5 9.8
2017-Nov-17 22:30N 49°38' W 124°33'5 9.9
2017-Nov-17 22:00N 49°42' W 124°38'510.1
2017-Nov-17 21:30N 49°45' W 124°44'510.1
2017-Nov-17 21:00N 49°48' W 124°50'5 9.6
2017-Nov-17 20:30N 49°51' W 124°56'5 9.9
2017-Nov-17 20:01N 49°54' W 125°02'5 9.9
2017-Nov-17 19:30N 49°58' W 125°08'5 9.4
2017-Nov-17 19:00N 50°01' W 125°13'5 9.5
2017-Nov-17 18:31N 50°05' W 125°17'4 7.7
2017-Nov-17 18:00N 50°08' W 125°21'3 5.9
2017-Nov-17 17:31N 50°11' W 125°22'3 6.1
2017-Nov-17 17:00N 50°14' W 125°23'3 6.1
2017-Nov-17 16:30N 50°17' W 125°24'4 6.8
2017-Nov-17 15:59N 50°20' W 125°26'4 7.6
2017-Nov-17 15:28N 50°21' W 125°32'5 7.0
2017-Nov-17 14:49N 50°22' W 125°39'5 7.1
2017-Nov-17 14:10N 50°22' W 125°46'1 6.7
2017-Nov-17 14:00N 50°23' W 125°47'42 8.9
2017-Nov-17 09:13N 50°39' W 126°49'311.1
2017-Nov-17 08:58N 50°41' W 126°52'510.7
2017-Nov-17 08:30N 50°42' W 126°60'510.4
2017-Nov-17 08:00N 50°44' W 127°08'510.5
2017-Nov-17 07:30N 50°46' W 127°15'510.5
2017-Nov-17 07:01N 50°48' W 127°23'510.6
2017-Nov-17 06:31N 50°51' W 127°30'810.5
2017-Nov-17 05:45N 50°55' W 127°40'311.0
2017-Nov-17 05:31N 50°57' W 127°43'510.7
2017-Nov-17 05:00N 51°01' W 127°50'510.6
2017-Nov-17 04:30N 51°04' W 127°57'1010.0
2017-Nov-17 03:29N 51°10' W 128°09'5 9.8
2017-Nov-17 03:01N 51°13' W 128°15'5 9.5
2017-Nov-17 02:30N 51°16' W 128°21'5 9.9
2017-Nov-17 02:01N 51°20' W 128°27'510.0
2017-Nov-17 01:31N 51°24' W 128°31'5 9.8
2017-Nov-17 01:01N 51°28' W 128°36'5 9.9
2017-Nov-17 00:30N 51°32' W 128°40'5 9.6
2017-Nov-17 00:00N 51°36' W 128°45'5 9.6
2017-Nov-16 23:31N 51°40' W 128°49'510.0
2017-Nov-16 23:01N 51°44' W 128°54'5 9.9
2017-Nov-16 22:30N 51°48' W 128°58'5 9.9
2017-Nov-16 22:00N 51°52' W 129°03'5 9.8
2017-Nov-16 21:30N 51°56' W 129°07'5 9.7
2017-Nov-16 21:00N 51°60' W 129°12'5 9.8
2017-Nov-16 20:30N 52°04' W 129°17'109 9.4
2017-Nov-16 08:50N 53°37' W 130°52'4 9.5
2017-Nov-16 08:24N 53°41' W 130°54'4 9.3
2017-Nov-16 08:00N 53°44' W 130°55'5 9.1
2017-Nov-16 07:30N 53°49' W 130°58'4 8.9
2017-Nov-16 07:00N 53°53' W 130°60'4 8.9
2017-Nov-16 06:31N 53°57' W 131°01'4 8.9
2017-Nov-16 06:01N 54°02' W 131°02'5 9.2
2017-Nov-16 05:30N 54°06' W 131°02'5 9.5
2017-Nov-16 05:00N 54°11' W 131°02'5 9.4
2017-Nov-16 04:30N 54°16' W 131°02'5 9.4
2017-Nov-16 04:01N 54°20' W 131°04'5 9.7
2017-Nov-16 03:30N 54°25' W 131°06'5 9.4
2017-Nov-16 03:00N 54°30' W 131°08'7 9.8
2017-Nov-16 02:18N 54°37' W 131°09'610.0
2017-Nov-16 01:43N 54°42' W 131°08'5 0.1
2017-Nov-14 15:15N 54°38' W 131°09'510.1
2017-Nov-14 14:46N 54°33' W 131°09'310.5
2017-Nov-14 14:31N 54°30' W 131°09'610.5
2017-Nov-14 13:59N 54°25' W 131°06'510.4
2017-Nov-14 13:30N 54°20' W 131°03'510.5
2017-Nov-14 13:00N 54°15' W 131°02'510.6
2017-Nov-14 12:31N 54°10' W 131°02'510.5
2017-Nov-14 12:01N 54°04' W 131°02'510.3
2017-Nov-14 11:30N 53°59' W 131°01'510.0
2017-Nov-14 10:59N 53°55' W 130°57'510.3
2017-Nov-14 10:30N 53°51' W 130°50'510.2
2017-Nov-14 10:00N 53°48' W 130°44'810.4
2017-Nov-14 09:16N 53°43' W 130°35'310.3
2017-Nov-14 09:00N 53°41' W 130°31'106 9.8
2017-Nov-13 22:14N 52°16' W 128°47'3 9.9
2017-Nov-13 21:59N 52°13' W 128°45'181 9.1
2017-Nov-13 02:01N 50°07' W 125°19'3 6.5
2017-Nov-13 01:30N 50°05' W 125°16'5 9.5
2017-Nov-13 01:01N 50°00' W 125°13'4 7.4
2017-Nov-13 00:31N 49°58' W 125°08'610.4
2017-Nov-12 23:58N 49°54' W 125°02'510.5
2017-Nov-12 23:28N 49°51' W 124°55'510.0
2017-Nov-12 23:00N 49°48' W 124°50'510.4
2017-Nov-12 22:30N 49°45' W 124°43'510.9
2017-Nov-12 22:00N 49°41' W 124°37'610.5
2017-Nov-12 21:27N 49°38' W 124°30'1810.2
2017-Nov-12 19:40N 49°28' W 124°06'210.4
2017-Nov-12 19:27N 49°26' W 124°03'610.5
2017-Nov-12 18:50N 49°22' W 123°55'410.8
2017-Nov-12 18:30N 49°20' W 123°51'610.7
2017-Nov-12 17:55N 49°16' W 123°44'510.7
2017-Nov-12 17:28N 49°13' W 123°38'610.5
2017-Nov-12 16:55N 49°10' W 123°31'410.2
2017-Nov-12 16:30N 49°07' W 123°26'510.2
2017-Nov-12 16:00N 49°04' W 123°20'510.4
2017-Nov-12 15:30N 49°01' W 123°14'610.1
2017-Nov-12 14:55N 48°57' W 123°07'4 9.5
2017-Nov-12 14:31N 48°55' W 123°02'4 8.6
2017-Nov-12 14:00N 48°54' W 122°55'6 9.5
2017-Nov-12 13:23N 48°52' W 122°47'1 2.7
2017-Nov-12 12:58N 48°52' W 122°45'0 0.0
2017-Nov-11 20:15N 48°52' W 122°45'0 0.5
2017-Nov-11 19:54N 48°51' W 122°45'5 7.2
2017-Nov-11 19:11N 48°52' W 122°53'2 8.8
2017-Nov-11 18:59N 48°53' W 122°56'4 8.8
2017-Nov-11 18:30N 48°54' W 123°02'4 8.7
2017-Nov-11 17:59N 48°56' W 123°08'5 9.3
2017-Nov-11 17:30N 48°58' W 123°14'5 8.9
2017-Nov-11 16:56N 49°01' W 123°20'4 9.4
2017-Nov-11 16:30N 49°04' W 123°23'5 9.5
2017-Nov-11 16:00N 49°09' W 123°23'5 9.9
2017-Nov-11 15:30N 49°14' W 123°22'5 9.4
2017-Nov-11 15:00N 49°18' W 123°18'5 9.3
2017-Nov-11 14:30N 49°19' W 123°11'5 9.1
2017-Nov-11 14:00N 49°18' W 123°05'3 5.7
2017-Nov-11 13:30N 49°18' W 123°00'0 0.0
2017-Nov-11 08:53N 49°18' W 123°00'0 0.0
2017-Nov-11 04:41N 49°18' W 123°00'0 0.0
2017-Nov-11 02:59N 49°18' W 123°00'0 0.0
2017-Nov-11 01:56N 49°18' W 123°00'1 1.9
2017-Nov-11 01:30N 49°18' W 122°59'2 2.4
2017-Nov-11 00:41N 49°18' W 122°56'0 0.1
2017-Nov-11 00:29N 49°18' W 122°56'0 0.0
2017-Nov-10 23:41N 49°18' W 122°56'0 0.0
2017-Nov-10 23:29N 49°18' W 122°56'0 0.0
2017-Nov-10 22:47N 49°18' W 122°56'0 0.0
2017-Nov-10 22:29N 49°18' W 122°56'0 0.0
2017-Nov-10 21:59N 49°18' W 122°56'0 0.1
2017-Nov-10 21:29N 49°18' W 122°56'0 0.2
2017-Nov-10 20:47N 49°18' W 122°56'0 0.0
2017-Nov-10 20:29N 49°18' W 122°56'0 0.1
2017-Nov-10 19:53N 49°18' W 122°56'0 0.1
2017-Nov-10 19:30N 49°18' W 122°56'0 0.1
2017-Nov-10 19:00N 49°18' W 122°56'0 0.1
2017-Nov-10 18:30N 49°18' W 122°56'0 0.3
2017-Nov-10 18:00N 49°18' W 122°56'1 2.6
2017-Nov-10 17:30N 49°18' W 122°54'0 0.2
2017-Nov-10 16:52N 49°17' W 122°54'0 0.0
2017-Nov-10 16:04N 49°17' W 122°54'0 0.1
2017-Nov-10 15:58N 49°17' W 122°54'0 0.0
2017-Nov-10 15:28N 49°17' W 122°54'0 0.0
2017-Nov-10 14:34N 49°17' W 122°54'0 0.1
2017-Nov-10 14:28N 49°17' W 122°54'0 0.0
2017-Nov-10 13:16N 49°17' W 122°54'0 0.0
2017-Nov-10 12:58N 49°17' W 122°54'0 0.0
2017-Nov-10 12:22N 49°17' W 122°54'0 0.0
2017-Nov-10 11:58N 49°17' W 122°54'0 0.0
2017-Nov-10 11:04N 49°17' W 122°54'0 0.0
2017-Nov-10 10:46N 49°17' W 122°54'0 0.0
2017-Nov-10 10:22N 49°17' W 122°54'0 0.0
2017-Nov-10 09:58N 49°17' W 122°54'0 0.0
2017-Nov-10 09:22N 49°17' W 122°54'0 0.0
2017-Nov-10 08:52N 49°17' W 122°54'0 0.0
2017-Nov-10 07:58N 49°17' W 122°54'0 0.0
2017-Nov-10 07:28N 49°17' W 122°54'0 0.0
2017-Nov-10 06:58N 49°17' W 122°54'0 0.0
2017-Nov-10 06:28N 49°17' W 122°54'0 0.5
2017-Nov-10 05:58N 49°17' W 122°54'3 6.0
2017-Nov-10 05:30N 49°18' W 122°59'3 6.5
2017-Nov-10 05:00N 49°18' W 123°03'1 2.6
2017-Nov-10 04:30N 49°18' W 123°05'2 4.5
2017-Nov-10 04:00N 49°19' W 123°09'3 6.4
2017-Nov-10 03:30N 49°20' W 123°13'2 4.2
2017-Nov-10 03:00N 49°20' W 123°17'3 5.1
2017-Nov-10 02:30N 49°19' W 123°20'3 5.3
2017-Nov-10 02:00N 49°19' W 123°25'3 5.8
2017-Nov-10 01:30N 49°20' W 123°29'3 6.4
2017-Nov-10 01:00N 49°21' W 123°34'3 6.7
2017-Nov-10 00:30N 49°22' W 123°38'5 8.0
2017-Nov-09 23:50N 49°24' W 123°46'2110.5
2017-Nov-09 21:51N 49°32' W 124°16'510.9
2017-Nov-09 21:22N 49°34' W 124°23'410.6
2017-Nov-09 21:00N 49°36' W 124°29'510.5
2017-Nov-09 20:30N 49°39' W 124°35'510.8
2017-Nov-09 20:00N 49°43' W 124°41'510.4
2017-Nov-09 19:30N 49°46' W 124°47'510.3
2017-Nov-09 19:00N 49°50' W 124°53'510.3
2017-Nov-09 18:30N 49°53' W 124°59'510.4
2017-Nov-09 18:00N 49°56' W 125°05'5 9.8
2017-Nov-09 17:30N 49°59' W 125°11'510.9
2017-Nov-09 17:00N 50°04' W 125°15'611.9
2017-Nov-09 16:30N 50°09' W 125°21'611.2
2017-Nov-09 16:00N 50°14' W 125°23'5 9.8
2017-Nov-09 15:30N 50°19' W 125°25'2 1.2
2017-Nov-09 13:49N 50°21' W 125°27'2 6.7
2017-Nov-09 13:30N 50°21' W 125°24'2 4.8
2017-Nov-09 12:59N 50°23' W 125°20'4 6.8
2017-Nov-09 12:26N 50°20' W 125°25'4 9.1
2017-Nov-09 12:00N 50°21' W 125°32'9 8.5
2017-Nov-09 10:58N 50°22' W 125°45'25 9.7
2017-Nov-09 08:21N 50°30' W 126°23'16 7.3
2017-Nov-09 06:11N 50°37' W 126°46'2 8.5
2017-Nov-09 06:00N 50°38' W 126°48'5 8.7
2017-Nov-09 05:28N 50°41' W 126°53'5 8.7
2017-Nov-09 04:57N 50°43' W 126°59'4 8.7
2017-Nov-09 04:28N 50°44' W 127°06'4 8.3
2017-Nov-09 04:00N 50°46' W 127°11'4 8.5
2017-Nov-09 03:30N 50°47' W 127°18'4 8.8
2017-Nov-09 03:00N 50°49' W 127°24'4 8.9
2017-Nov-09 02:30N 50°51' W 127°30'4 8.3
2017-Nov-09 02:00N 50°53' W 127°36'5 9.7
2017-Nov-09 01:30N 50°56' W 127°42'5 9.4
2017-Nov-09 01:00N 50°60' W 127°46'5 9.7
2017-Nov-09 00:30N 51°05' W 127°48'510.2
2017-Nov-09 00:00N 51°10' W 127°51'610.3
2017-Nov-08 23:27N 51°15' W 127°53'510.4
2017-Nov-08 23:00N 51°19' W 127°56'5 9.8
2017-Nov-08 22:27N 51°24' W 128°00'4 9.9
2017-Nov-08 22:00N 51°26' W 128°06'510.2
2017-Nov-08 21:30N 51°30' W 128°12'510.2
2017-Nov-08 21:00N 51°34' W 128°16'5 9.3
2017-Nov-08 20:30N 51°38' W 128°20'4 8.9
2017-Nov-08 20:00N 51°42' W 128°24'5 9.6
2017-Nov-08 19:30N 51°46' W 128°28'5 9.7
2017-Nov-08 19:00N 51°50' W 128°32'5 9.4
2017-Nov-08 18:30N 51°55' W 128°35'5 9.1
2017-Nov-08 18:00N 51°59' W 128°38'4 8.6
2017-Nov-08 17:30N 52°03' W 128°40'4 8.8
2017-Nov-08 17:00N 52°07' W 128°42'  

Dump ship's entire track history